Salina, Kansas
Current Conditions -  °F | °C
As of 5:53 PM on Saturday 25 Oct 2014 (Local Time) from KSLN Reporting Station
Clear Clear  
Wind Chill: 28°   Ceiling: Unl
Heat Index: 28°   Visibility: 10mi
Dew Point: 14°   Wind: 6mph
Humidity: 41%   Direction: 180°S
Pressure: 29.96"   Gusts: NA
Location:  38.84°N, 97.61°W
Report Text: KSLN 252253Z 18005KT 10SM CLR 28/14 A2996 RMK AO2 SLP136 T02830139
Loading
Personal Weather Stations






























Interactive Weather Map
Tropical Storm Tracking
New forecast layout! Learn more

10-Day Weather Forecast

Advertisements
Track Severe Weather on mobile